Time;durP1;ratioP1;P1;durP2;ratioP2;P2;SDS_P1;SDS_P2;PMS_P1;PMS_P2;Temp;Humidity;BMP_temperature;BMP_pressure;BME280_temperature;BME280_humidity;BME280_pressure;Samples;Min_cycle;Max_cycle;Signal;HPM_P1;HPM_P2
2021/07/22 00:01:23;;;;;;;0.10;0.10;;;;;;;;;;4792321;29;20106;-86
2021/07/22 00:03:49;;;;;;;0.10;0.10;;;;;;;;;;4807267;29;20053;-86
2021/07/22 00:06:15;;;;;;;0.10;0.10;;;;;;;;;;4792450;29;20043;-86
2021/07/22 00:08:41;;;;;;;0.10;0.10;;;;;;;;;;4807138;29;20511;-87
2021/07/22 00:11:07;;;;;;;0.10;0.10;;;;;;;;;;4807283;29;20038;-86
2021/07/22 00:13:33;;;;;;;0.10;0.10;;;;;;;;;;4807379;29;20548;-87
2021/07/22 00:15:59;;;;;;;0.10;0.10;;;;;;;;;;4792124;29;20069;-87
2021/07/22 00:18:25;;;;;;;0.10;0.10;;;;;;;;;;4807021;29;20039;-87
2021/07/22 00:20:52;;;;;;;0.10;0.10;;;;;;;;;;4792195;29;20125;-86
2021/07/22 00:23:18;;;;;;;0.22;0.22;;;;;;;;;;4807285;29;20049;-86
2021/07/22 00:25:44;;;;;;;0.10;0.10;;;;;;;;;;4823451;29;20046;-87
2021/07/22 00:28:11;;;;;;;0.10;0.10;;;;;;;;;;4807049;29;20054;-87
2021/07/22 00:30:37;;;;;;;0.10;0.10;;;;;;;;;;4806998;29;20043;-86
2021/07/22 00:33:03;;;;;;;0.10;0.10;;;;;;;;;;4792152;29;20102;-87
2021/07/22 00:35:29;;;;;;;0.10;0.10;;;;;;;;;;4791943;29;20511;-86
2021/07/22 00:37:56;;;;;;;0.20;0.20;;;;;;;;;;4806976;29;20483;-86
2021/07/22 00:40:22;;;;;;;0.20;0.20;;;;;;;;;;4806873;29;20060;-87
2021/07/22 00:42:55;;;;;;;0.20;0.20;;;;;;;;;;4807085;29;20038;-86
2021/07/22 00:45:21;;;;;;;0.10;0.10;;;;;;;;;;4806877;29;20427;-86
2021/07/22 00:47:47;;;;;;;0.20;0.20;;;;;;;;;;4806688;29;20089;-86
2021/07/22 00:50:13;;;;;;;0.10;0.10;;;;;;;;;;4791607;29;20060;-86
2021/07/22 00:52:39;;;;;;;0.10;0.10;;;;;;;;;;4791865;29;20395;-86
2021/07/22 00:55:05;;;;;;;0.10;0.10;;;;;;;;;;4806772;29;20044;-86
2021/07/22 00:57:31;;;;;;;0.10;0.10;;;;;;;;;;4791835;29;20106;-86
2021/07/22 00:59:57;;;;;;;0.10;0.10;;;;;;;;;;4791840;29;20085;-86
2021/07/22 01:02:23;;;;;;;0.10;0.10;;;;;;;;;;4806790;29;20432;-86
2021/07/22 01:04:49;;;;;;;0.10;0.10;;;;;;;;;;4823053;29;20072;-86
2021/07/22 01:07:15;;;;;;;0.10;0.10;;;;;;;;;;4791802;29;20038;-87
2021/07/22 01:09:42;;;;;;;0.10;0.10;;;;;;;;;;4806612;29;20074;-87
2021/07/22 01:12:08;;;;;;;0.20;0.20;;;;;;;;;;4810199;29;20053;-87
2021/07/22 01:14:34;;;;;;;0.10;0.10;;;;;;;;;;4795009;29;20069;-87
2021/07/22 01:17:00;;;;;;;0.10;0.10;;;;;;;;;;4794978;29;20407;-87
2021/07/22 01:19:26;;;;;;;0.10;0.10;;;;;;;;;;4794915;29;20042;-87
2021/07/22 01:21:52;;;;;;;0.10;0.10;;;;;;;;;;4795020;29;20247;-87
2021/07/22 01:24:18;;;;;;;0.20;0.20;;;;;;;;;;4810195;29;20113;-87
2021/07/22 01:26:44;;;;;;;0.15;0.15;;;;;;;;;;4809923;29;20079;-87
2021/07/22 01:29:12;;;;;;;0.10;0.10;;;;;;;;;;4795004;29;20531;-87
2021/07/22 01:31:38;;;;;;;0.10;0.10;;;;;;;;;;4825912;29;20071;-87
2021/07/22 01:34:04;;;;;;;0.20;0.20;;;;;;;;;;4809810;29;20479;-87
2021/07/22 01:36:30;;;;;;;0.20;0.20;;;;;;;;;;4809560;29;20050;-87
2021/07/22 01:39:00;;;;;;;0.20;0.20;;;;;;;;;;4825787;29;20039;-88
2021/07/22 01:41:26;;;;;;;0.10;0.10;;;;;;;;;;4795085;29;20373;-87
2021/07/22 01:43:52;;;;;;;0.10;0.10;;;;;;;;;;4794746;29;20049;-87
2021/07/22 01:46:19;;;;;;;0.10;0.10;;;;;;;;;;4809851;29;20081;-87
2021/07/22 01:48:46;;;;;;;0.10;0.10;;;;;;;;;;4809779;29;20045;-86
2021/07/22 01:51:12;;;;;;;0.10;0.10;;;;;;;;;;4794346;29;20054;-86
2021/07/22 01:53:38;;;;;;;0.10;0.10;;;;;;;;;;4809498;29;20058;-86
2021/07/22 01:56:04;;;;;;;0.10;0.10;;;;;;;;;;4809446;29;20125;-86
2021/07/22 01:58:33;;;;;;;0.10;0.10;;;;;;;;;;4794469;29;20058;-87
2021/07/22 02:01:02;;;;;;;0.10;0.10;;;;;;;;;;4809312;29;20551;-87
2021/07/22 02:03:28;;;;;;;0.10;0.10;;;;;;;;;;4809209;29;20038;-86
2021/07/22 02:05:54;;;;;;;0.10;0.10;;;;;;;;;;4825331;29;20045;-87
2021/07/22 02:08:20;;;;;;;0.10;0.10;;;;;;;;;;4809272;29;20038;-87
2021/07/22 02:10:46;;;;;;;0.20;0.20;;;;;;;;;;4809150;29;20054;-86
2021/07/22 02:13:12;;;;;;;0.10;0.10;;;;;;;;;;4794188;29;20050;-86
2021/07/22 02:15:38;;;;;;;0.10;0.10;;;;;;;;;;4809096;29;20547;-86
2021/07/22 02:18:04;;;;;;;0.10;0.10;;;;;;;;;;4793938;29;20057;-86
2021/07/22 02:20:30;;;;;;;0.10;0.10;;;;;;;;;;4809129;29;20053;-87
2021/07/22 02:22:56;;;;;;;0.15;0.15;;;;;;;;;;4793825;29;20568;-87
2021/07/22 02:25:22;;;;;;;0.10;0.10;;;;;;;;;;4808890;29;20042;-86
2021/07/22 02:27:48;;;;;;;0.28;0.28;;;;;;;;;;4824911;29;20046;-86
2021/07/22 02:30:15;;;;;;;0.20;0.20;;;;;;;;;;4793897;29;20053;-86
2021/07/22 02:32:41;;;;;;;0.10;0.10;;;;;;;;;;4793695;29;20109;-87
2021/07/22 02:35:07;;;;;;;0.10;0.10;;;;;;;;;;4825004;29;20490;-87
2021/07/22 02:37:33;;;;;;;0.20;0.20;;;;;;;;;;4824791;29;20070;-87
2021/07/22 02:39:59;;;;;;;0.10;0.10;;;;;;;;;;4808622;29;20081;-87
2021/07/22 02:42:25;;;;;;;0.10;0.10;;;;;;;;;;4808856;29;20525;-87
2021/07/22 02:44:51;;;;;;;0.10;0.10;;;;;;;;;;4808913;29;20039;-86
2021/07/22 02:47:17;;;;;;;0.10;0.10;;;;;;;;;;4793446;29;20447;-87
2021/07/22 02:49:43;;;;;;;0.10;0.10;;;;;;;;;;4808465;29;20065;-87
2021/07/22 02:52:09;;;;;;;0.10;0.10;;;;;;;;;;4793493;29;20053;-87
2021/07/22 02:54:35;;;;;;;0.10;0.10;;;;;;;;;;4793326;29;20038;-86
2021/07/22 02:57:02;;;;;;;0.10;0.10;;;;;;;;;;4808288;29;20479;-86
2021/07/22 02:59:28;;;;;;;0.20;0.20;;;;;;;;;;4824558;29;20448;-86
2021/07/22 03:01:54;;;;;;;0.10;0.10;;;;;;;;;;4793392;29;20050;-86
2021/07/22 03:04:20;;;;;;;0.10;0.10;;;;;;;;;;4824478;29;20046;-86
2021/07/22 03:06:46;;;;;;;0.10;0.10;;;;;;;;;;4824421;29;20042;-86
2021/07/22 03:09:12;;;;;;;0.15;0.15;;;;;;;;;;4793010;29;20042;-87
2021/07/22 03:11:38;;;;;;;0.10;0.10;;;;;;;;;;4808212;29;20385;-87
2021/07/22 03:14:04;;;;;;;0.20;0.20;;;;;;;;;;4793074;29;20046;-87
2021/07/22 03:16:30;;;;;;;0.10;0.10;;;;;;;;;;4792962;29;20502;-87
2021/07/22 03:18:56;;;;;;;0.10;0.10;;;;;;;;;;4808182;29;20054;-86
2021/07/22 03:21:22;;;;;;;0.10;0.10;;;;;;;;;;4808139;29;20111;-87
2021/07/22 03:23:48;;;;;;;0.20;0.20;;;;;;;;;;4807932;29;20380;-86
2021/07/22 03:26:18;;;;;;;0.10;0.10;;;;;;;;;;4792938;29;20401;-86
2021/07/22 03:28:44;;;;;;;0.20;0.20;;;;;;;;;;4807889;29;20119;-86
2021/07/22 03:31:12;;;;;;;0.20;0.20;;;;;;;;;;4824016;29;20050;-86
2021/07/22 03:33:40;;;;;;;0.20;0.20;;;;;;;;;;4807417;29;20049;-86
2021/07/22 03:36:06;;;;;;;0.10;0.10;;;;;;;;;;4823951;29;20462;-85
2021/07/22 03:38:32;;;;;;;0.10;0.10;;;;;;;;;;4823906;29;20049;-86
2021/07/22 03:40:58;;;;;;;0.10;0.10;;;;;;;;;;4807833;29;20047;-86
2021/07/22 03:43:24;;;;;;;0.10;0.10;;;;;;;;;;4792643;29;20079;-86
2021/07/22 03:45:57;;;;;;;0.10;0.10;;;;;;;;;;4808109;29;20047;-93
2021/07/22 03:48:23;;;;;;;0.10;0.10;;;;;;;;;;4792765;29;20086;-86
2021/07/22 03:50:50;;;;;;;0.10;0.10;;;;;;;;;;4807266;29;20062;-86
2021/07/22 03:53:16;;;;;;;0.10;0.10;;;;;;;;;;4807529;29;20042;-86
2021/07/22 03:55:42;;;;;;;0.10;0.10;;;;;;;;;;4807352;29;20072;-86
2021/07/22 03:58:08;;;;;;;0.10;0.10;;;;;;;;;;4807365;29;20081;-86
2021/07/22 04:00:34;;;;;;;0.10;0.10;;;;;;;;;;4823707;29;20080;-86
2021/07/22 04:03:00;;;;;;;0.10;0.10;;;;;;;;;;4807469;29;20145;-86
2021/07/22 04:05:27;;;;;;;0.10;0.10;;;;;;;;;;4807391;29;20038;-86
2021/07/22 04:07:57;;;;;;;0.10;0.10;;;;;;;;;;4823431;29;20046;-86
2021/07/22 04:10:23;;;;;;;0.10;0.10;;;;;;;;;;4807328;29;20456;-85
2021/07/22 04:12:56;;;;;;;0.10;0.10;;;;;;;;;;4792302;29;20131;-85
2021/07/22 04:15:23;;;;;;;0.10;0.10;;;;;;;;;;4807257;29;20069;-86
2021/07/22 04:17:50;;;;;;;0.20;0.20;;;;;;;;;;4792137;29;20179;-86
2021/07/22 04:20:16;;;;;;;0.10;0.10;;;;;;;;;;4807174;29;20046;-86
2021/07/22 04:22:42;;;;;;;0.10;0.10;;;;;;;;;;4823407;29;20045;-86
2021/07/22 04:25:08;;;;;;;0.10;0.10;;;;;;;;;;4823372;29;20138;-86
2021/07/22 04:27:34;;;;;;;0.10;0.10;;;;;;;;;;4791772;29;20054;-85
2021/07/22 04:30:01;;;;;;;0.10;0.10;;;;;;;;;;4792171;29;20058;-86
2021/07/22 04:32:28;;;;;;;0.20;0.20;;;;;;;;;;4807190;29;20050;-86
2021/07/22 04:34:54;;;;;;;0.10;0.10;;;;;;;;;;4807011;29;20504;-86
2021/07/22 04:37:20;;;;;;;0.10;0.10;;;;;;;;;;4791976;29;20448;-86
2021/07/22 04:39:46;;;;;;;0.10;0.10;;;;;;;;;;4806970;29;20046;-86
2021/07/22 04:42:12;;;;;;;0.10;0.10;;;;;;;;;;4806901;29;20038;-85
2021/07/22 04:44:38;;;;;;;0.10;0.10;;;;;;;;;;4793495;29;20070;-86
2021/07/22 04:47:04;;;;;;;0.10;0.10;;;;;;;;;;4810370;29;20081;-87
2021/07/22 04:49:30;;;;;;;0.20;0.20;;;;;;;;;;4810616;29;20042;-86
2021/07/22 04:51:59;;;;;;;0.20;0.20;;;;;;;;;;4810410;29;20142;-86
2021/07/22 04:54:25;;;;;;;0.20;0.20;;;;;;;;;;4810460;29;20547;-86
2021/07/22 04:56:51;;;;;;;0.10;0.10;;;;;;;;;;4795313;29;20480;-86
2021/07/22 04:59:17;;;;;;;0.20;0.20;;;;;;;;;;4810386;29;20453;-86
2021/07/22 05:01:43;;;;;;;0.10;0.10;;;;;;;;;;4810309;29;20086;-84
2021/07/22 05:04:15;;;;;;;0.10;0.10;;;;;;;;;;4795301;29;20042;-85
2021/07/22 05:06:41;;;;;;;0.28;0.28;;;;;;;;;;4826399;29;20039;-85
2021/07/22 05:09:07;;;;;;;0.20;0.20;;;;;;;;;;4810196;29;20054;-85
2021/07/22 05:11:33;;;;;;;0.13;0.13;;;;;;;;;;4810255;29;20049;-86
2021/07/22 05:13:59;;;;;;;0.10;0.10;;;;;;;;;;4809897;29;20043;-88
2021/07/22 05:16:25;;;;;;;0.22;0.20;;;;;;;;;;4810059;29;20605;-88
2021/07/22 05:18:51;;;;;;;0.47;0.47;;;;;;;;;;4795166;29;20125;-87
2021/07/22 05:21:19;;;;;;;0.30;0.30;;;;;;;;;;4810092;29;20339;-87
2021/07/22 05:23:45;;;;;;;0.10;0.10;;;;;;;;;;4810205;29;20053;-86
2021/07/22 05:26:11;;;;;;;0.30;0.30;;;;;;;;;;4794914;29;20042;-87
2021/07/22 05:28:40;;;;;;;0.10;0.10;;;;;;;;;;4809693;29;20078;-86
2021/07/22 05:31:06;;;;;;;0.10;0.10;;;;;;;;;;4809929;29;20042;-87
2021/07/22 05:33:34;;;;;;;0.10;0.10;;;;;;;;;;4825973;29;20099;-87
2021/07/22 05:36:02;;;;;;;0.20;0.20;;;;;;;;;;4809792;29;20483;-86
2021/07/22 05:38:28;;;;;;;0.10;0.10;;;;;;;;;;4794811;29;20072;-87
2021/07/22 05:40:54;;;;;;;0.10;0.10;;;;;;;;;;4809998;29;20133;-88
2021/07/22 05:43:20;;;;;;;0.10;0.10;;;;;;;;;;4794602;29;20042;-86
2021/07/22 05:45:46;;;;;;;0.10;0.10;;;;;;;;;;4794692;29;20559;-86
2021/07/22 05:48:12;;;;;;;0.10;0.10;;;;;;;;;;4809469;29;20067;-86
2021/07/22 05:50:38;;;;;;;0.10;0.10;;;;;;;;;;4809369;29;20050;-86
2021/07/22 05:53:04;;;;;;;0.10;0.10;;;;;;;;;;4794774;29;20054;-86
2021/07/22 05:55:30;;;;;;;0.10;0.10;;;;;;;;;;4793964;29;20487;-87
2021/07/22 05:57:56;;;;;;;0.10;0.10;;;;;;;;;;4809098;29;20046;-86
2021/07/22 06:00:22;;;;;;;0.10;0.10;;;;;;;;;;4808083;29;20030;-86
2021/07/22 06:02:48;;;;;;;0.10;0.10;;;;;;;;;;4825289;29;20128;-86
2021/07/22 06:05:14;;;;;;;0.10;0.10;;;;;;;;;;4823798;29;20178;-85
2021/07/22 06:07:40;;;;;;;0.10;0.10;;;;;;;;;;4843304;29;20050;-86
2021/07/22 06:10:06;;;;;;;0.10;0.10;;;;;;;;;;4826855;29;20042;-86
2021/07/22 06:12:32;;;;;;;0.10;0.10;;;;;;;;;;4827297;29;20061;-86
2021/07/22 06:14:58;;;;;;;0.10;0.10;;;;;;;;;;4827379;29;20042;-88
2021/07/22 06:17:24;;;;;;;0.10;0.10;;;;;;;;;;4812013;29;20461;-88
2021/07/22 06:19:51;;;;;;;0.10;0.10;;;;;;;;;;4843509;29;20074;-88
2021/07/22 06:22:18;;;;;;;0.10;0.10;;;;;;;;;;4827245;29;20049;-88
2021/07/22 06:24:44;;;;;;;0.15;0.15;;;;;;;;;;4812135;29;20045;-87
2021/07/22 06:27:12;;;;;;;0.10;0.10;;;;;;;;;;4811780;29;20129;-87
2021/07/22 06:29:39;;;;;;;0.10;0.10;;;;;;;;;;4811858;29;20069;-87
2021/07/22 06:32:05;;;;;;;0.10;0.10;;;;;;;;;;4843469;29;20046;-88
2021/07/22 06:34:32;;;;;;;0.20;0.20;;;;;;;;;;4812048;29;20046;-87
2021/07/22 06:36:58;;;;;;;0.13;0.13;;;;;;;;;;4826872;29;20091;-88
2021/07/22 06:39:24;;;;;;;0.20;0.20;;;;;;;;;;4826968;29;20050;-88
2021/07/22 06:41:50;;;;;;;0.10;0.10;;;;;;;;;;4826718;29;20049;-89
2021/07/22 06:44:16;;;;;;;0.10;0.10;;;;;;;;;;4811721;29;20407;-88
2021/07/22 06:46:42;;;;;;;0.20;0.20;;;;;;;;;;4811587;29;20066;-89
2021/07/22 06:49:08;;;;;;;0.70;0.30;;;;;;;;;;4826826;29;20038;-88
2021/07/22 06:51:34;;;;;;;0.10;0.10;;;;;;;;;;4811485;29;20065;-88
2021/07/22 06:54:00;;;;;;;0.20;0.20;;;;;;;;;;4811489;29;20091;-89
2021/07/22 06:56:26;;;;;;;0.10;0.10;;;;;;;;;;4811303;29;20621;-88
2021/07/22 06:58:52;;;;;;;0.20;0.20;;;;;;;;;;4811627;29;20133;-87
2021/07/22 07:01:18;;;;;;;0.20;0.20;;;;;;;;;;4826526;29;20551;-87
2021/07/22 07:03:44;;;;;;;0.10;0.10;;;;;;;;;;4811258;29;20105;-87
2021/07/22 07:06:10;;;;;;;0.10;0.10;;;;;;;;;;4826662;29;20093;-88
2021/07/22 07:08:36;;;;;;;0.10;0.10;;;;;;;;;;4825550;29;20042;-88
2021/07/22 07:11:02;;;;;;;0.10;0.10;;;;;;;;;;4811177;29;20064;-89
2021/07/22 07:13:28;;;;;;;0.20;0.20;;;;;;;;;;4811109;29;20050;-88
2021/07/22 07:15:54;;;;;;;0.10;0.10;;;;;;;;;;4842274;29;20041;-87
2021/07/22 07:18:20;;;;;;;0.13;0.13;;;;;;;;;;4810614;29;20122;-89
2021/07/22 07:20:46;;;;;;;0.10;0.10;;;;;;;;;;4842181;29;20042;-88
2021/07/22 07:23:12;;;;;;;0.10;0.10;;;;;;;;;;4826027;29;20136;-86
2021/07/22 07:25:39;;;;;;;0.32;0.32;;;;;;;;;;4826109;29;20038;-87
2021/07/22 07:28:08;;;;;;;0.20;0.20;;;;;;;;;;4811649;29;20483;-89
2021/07/22 07:30:34;;;;;;;0.20;0.20;;;;;;;;;;4825881;29;20057;-88
2021/07/22 07:33:00;;;;;;;0.10;0.10;;;;;;;;;;4825762;29;20118;-87
2021/07/22 07:35:28;;;;;;;0.32;0.20;;;;;;;;;;4826158;29;20548;-87
2021/07/22 07:37:54;;;;;;;0.20;0.20;;;;;;;;;;4825667;29;20057;-86
2021/07/22 07:40:20;;;;;;;0.17;0.17;;;;;;;;;;4825991;29;20045;-87
2021/07/22 07:42:46;;;;;;;0.20;0.20;;;;;;;;;;4825909;29;20038;-87
2021/07/22 07:45:12;;;;;;;0.57;0.10;;;;;;;;;;4826064;29;20561;-86
2021/07/22 07:47:38;;;;;;;0.17;0.17;;;;;;;;;;4825845;29;20042;-87
2021/07/22 07:50:07;;;;;;;0.17;0.13;;;;;;;;;;4810377;29;20145;-87
2021/07/22 07:52:36;;;;;;;0.10;0.10;;;;;;;;;;4841809;29;20344;-87
2021/07/22 07:55:02;;;;;;;0.10;0.10;;;;;;;;;;4825565;29;20042;-87
2021/07/22 07:57:28;;;;;;;0.40;0.35;;;;;;;;;;4810449;29;20114;-86
2021/07/22 07:59:54;;;;;;;0.25;0.25;;;;;;;;;;4841814;29;20487;-86
2021/07/22 08:02:20;;;;;;;0.20;0.20;;;;;;;;;;4841819;29;20041;-86
2021/07/22 08:04:46;;;;;;;0.30;0.30;;;;;;;;;;4825718;29;20068;-87
2021/07/22 08:07:12;;;;;;;0.20;0.20;;;;;;;;;;4825505;29;20384;-87
2021/07/22 08:09:38;;;;;;;0.17;0.17;;;;;;;;;;4825242;29;20487;-88
2021/07/22 08:12:04;;;;;;;0.10;0.10;;;;;;;;;;4841770;29;20132;-89
2021/07/22 08:14:36;;;;;;;0.10;0.10;;;;;;;;;;4841553;29;20121;-85
2021/07/22 08:17:02;;;;;;;0.20;0.20;;;;;;;;;;4826128;29;20061;-90
2021/07/22 08:19:28;;;;;;;0.57;0.30;;;;;;;;;;4825298;29;20050;-92
2021/07/22 08:21:54;;;;;;;0.10;0.10;;;;;;;;;;4825765;29;20060;-90
2021/07/22 08:24:20;;;;;;;0.20;0.20;;;;;;;;;;4810357;29;20058;-90
2021/07/22 08:26:46;;;;;;;0.10;0.10;;;;;;;;;;4810193;29;20057;-90
2021/07/22 08:29:12;;;;;;;0.30;0.30;;;;;;;;;;4810400;29;20419;-90
2021/07/22 08:31:38;;;;;;;0.20;0.20;;;;;;;;;;4810193;29;20106;-89
2021/07/22 08:34:04;;;;;;;0.10;0.10;;;;;;;;;;4794809;29;20106;-89
2021/07/22 08:36:33;;;;;;;0.20;0.20;;;;;;;;;;4825641;29;20046;-89
2021/07/22 08:38:59;;;;;;;0.10;0.10;;;;;;;;;;4810045;29;20046;-90
2021/07/22 08:41:26;;;;;;;0.10;0.10;;;;;;;;;;4809979;29;20046;-89
2021/07/22 08:43:52;;;;;;;0.20;0.20;;;;;;;;;;4825234;29;20049;-89
2021/07/22 08:46:18;;;;;;;0.10;0.10;;;;;;;;;;4825187;29;20514;-89
2021/07/22 08:48:45;;;;;;;0.10;0.10;;;;;;;;;;4809786;29;20110;-90
2021/07/22 08:51:11;;;;;;;0.10;0.10;;;;;;;;;;4794908;29;20058;-90
2021/07/22 08:53:37;;;;;;;0.10;0.10;;;;;;;;;;4810063;29;20604;-90
2021/07/22 08:56:03;;;;;;;0.20;0.20;;;;;;;;;;4825493;29;20042;-91
2021/07/22 08:58:30;;;;;;;0.20;0.20;;;;;;;;;;4810154;29;20483;-91
2021/07/22 09:00:56;;;;;;;0.20;0.20;;;;;;;;;;4794959;29;20091;-90
2021/07/22 09:03:22;;;;;;;0.20;0.20;;;;;;;;;;4809924;29;20049;-90
2021/07/22 09:05:48;;;;;;;0.20;0.20;;;;;;;;;;4809895;29;20046;-90
2021/07/22 09:08:14;;;;;;;0.20;0.20;;;;;;;;;;4825066;29;20045;-91
2021/07/22 09:10:40;;;;;;;0.20;0.20;;;;;;;;;;4809809;29;20133;-91
2021/07/22 09:13:06;;;;;;;0.20;0.20;;;;;;;;;;4825092;29;20467;-89
2021/07/22 09:15:34;;;;;;;0.77;0.52;;;;;;;;;;4809670;29;20072;-89
2021/07/22 09:18:19;;;;;;;0.20;0.20;;;;;;;;;;4809743;29;20581;-90
2021/07/22 09:20:45;;;;;;;0.20;0.20;;;;;;;;;;4792746;29;20046;-88
2021/07/22 09:23:17;;;;;;;0.20;0.20;;;;;;;;;;4842969;29;20051;-94
2021/07/22 09:25:46;;;;;;;0.20;0.20;;;;;;;;;;4824703;29;20038;-86
2021/07/22 09:28:15;;;;;;;0.20;0.20;;;;;;;;;;4809315;29;20068;-86
2021/07/22 09:30:54;;;;;;;0.20;0.20;;;;;;;;;;4841007;29;20148;-86
2021/07/22 09:33:32;;;;;;;0.20;0.20;;;;;;;;;;4827930;29;20070;-87
2021/07/22 09:35:58;;;;;;;0.20;0.20;;;;;;;;;;4812825;29;20046;-87
2021/07/22 09:38:29;;;;;;;0.20;0.20;;;;;;;;;;4827871;29;20102;-87
2021/07/22 09:40:55;;;;;;;0.20;0.20;;;;;;;;;;4828048;29;20054;-87
2021/07/22 09:43:48;;;;;;;0.20;0.20;;;;;;;;;;4827191;29;20041;-86
2021/07/22 09:46:15;;;;;;;0.20;0.20;;;;;;;;;;4840914;29;20061;-90
2021/07/22 09:49:00;;;;;;;0.20;0.20;;;;;;;;;;4812542;29;20042;-87
2021/07/22 09:51:32;;;;;;;0.20;0.20;;;;;;;;;;4827165;29;20070;-87
2021/07/22 09:54:11;;;;;;;0.20;0.20;;;;;;;;;;4827643;29;20053;-87
2021/07/22 09:56:38;;;;;;;0.20;0.20;;;;;;;;;;4843800;29;20116;-86
2021/07/22 09:59:04;;;;;;;0.20;0.20;;;;;;;;;;4827508;29;20046;-86
2021/07/22 10:01:31;;;;;;;0.20;0.20;;;;;;;;;;4827398;29;20041;-86
2021/07/22 10:03:57;;;;;;;0.30;0.30;;;;;;;;;;4827436;29;20106;-86
2021/07/22 10:06:23;;;;;;;0.10;0.10;;;;;;;;;;4812442;29;20046;-86
2021/07/22 10:08:49;;;;;;;0.10;0.10;;;;;;;;;;4827360;29;20491;-86
2021/07/22 10:11:16;;;;;;;0.20;0.20;;;;;;;;;;4827261;29;20112;-86
2021/07/22 10:13:43;;;;;;;0.20;0.20;;;;;;;;;;4812304;29;20049;-86
2021/07/22 10:16:14;;;;;;;0.20;0.20;;;;;;;;;;4827118;29;20042;-86
2021/07/22 10:18:41;;;;;;;0.20;0.20;;;;;;;;;;4812067;29;20046;-86
2021/07/22 10:21:07;;;;;;;0.20;0.20;;;;;;;;;;4811965;29;20050;-87
2021/07/22 10:23:33;;;;;;;0.20;0.20;;;;;;;;;;4812044;29;20042;-88
2021/07/22 10:25:59;;;;;;;0.20;0.20;;;;;;;;;;4811875;29;20502;-86
2021/07/22 10:28:25;;;;;;;0.20;0.20;;;;;;;;;;4826838;29;20050;-87
2021/07/22 10:30:51;;;;;;;0.20;0.20;;;;;;;;;;4826995;29;20399;-87
2021/07/22 10:33:19;;;;;;;0.20;0.20;;;;;;;;;;4826952;29;20042;-87
2021/07/22 10:35:45;;;;;;;0.20;0.20;;;;;;;;;;4826916;29;20037;-87
2021/07/22 10:38:13;;;;;;;0.20;0.20;;;;;;;;;;4826708;29;20073;-87
2021/07/22 10:40:54;;;;;;;0.20;0.20;;;;;;;;;;4827214;29;20045;-87
2021/07/22 10:43:39;;;;;;;0.20;0.20;;;;;;;;;;4843022;29;20038;-87
2021/07/22 10:46:05;;;;;;;0.20;0.20;;;;;;;;;;4843123;29;20046;-88
2021/07/22 10:48:31;;;;;;;0.30;0.30;;;;;;;;;;4811740;29;20125;-89
2021/07/22 10:50:57;;;;;;;0.13;0.13;;;;;;;;;;4826527;29;20411;-90
2021/07/22 10:53:41;;;;;;;0.47;0.47;;;;;;;;;;4826906;29;20502;-93
2021/07/22 10:56:08;;;;;;;0.40;0.40;;;;;;;;;;4825210;29;20053;-92
2021/07/22 10:58:34;;;;;;;0.20;0.20;;;;;;;;;;4825931;29;20049;-90
2021/07/22 11:01:06;;;;;;;0.20;0.20;;;;;;;;;;4842712;29;20044;-91
2021/07/22 11:03:35;;;;;;;0.32;0.32;;;;;;;;;;4811580;29;20149;-89
2021/07/22 11:06:11;;;;;;;0.20;0.20;;;;;;;;;;4826769;29;20074;-91
2021/07/22 11:08:40;;;;;;;0.13;0.13;;;;;;;;;;4811301;29;20102;-91
2021/07/22 11:11:07;;;;;;;0.30;0.30;;;;;;;;;;4796376;29;20073;-91
2021/07/22 11:13:33;;;;;;;0.20;0.20;;;;;;;;;;4811516;29;20387;-91
2021/07/22 11:16:00;;;;;;;0.10;0.10;;;;;;;;;;4826657;29;20513;-90
2021/07/22 11:18:44;;;;;;;0.10;0.10;;;;;;;;;;4796251;29;20057;-90
2021/07/22 11:21:10;;;;;;;0.35;0.35;;;;;;;;;;4826245;29;20080;-91
2021/07/22 11:23:36;;;;;;;0.20;0.20;;;;;;;;;;4842545;29;20042;-91
2021/07/22 11:26:02;;;;;;;0.28;0.28;;;;;;;;;;4826413;29;20045;-91
2021/07/22 11:28:28;;;;;;;0.20;0.20;;;;;;;;;;4811037;29;20057;-93
2021/07/22 11:31:01;;;;;;;0.20;0.20;;;;;;;;;;4811145;29;20463;-92
2021/07/22 11:33:35;;;;;;;0.20;0.20;;;;;;;;;;4810988;29;20479;-93
2021/07/22 11:36:02;;;;;;;0.20;0.20;;;;;;;;;;4811125;29;20501;-91
2021/07/22 11:38:28;;;;;;;0.30;0.20;;;;;;;;;;4811186;29;20501;-91
2021/07/22 11:40:58;;;;;;;0.35;0.20;;;;;;;;;;4826772;29;20054;-92
2021/07/22 11:43:36;;;;;;;0.20;0.20;;;;;;;;;;4811066;29;20066;-91
2021/07/22 11:46:03;;;;;;;0.30;0.30;;;;;;;;;;4825193;29;20123;-90
2021/07/22 11:48:29;;;;;;;0.20;0.20;;;;;;;;;;4810976;29;20049;-90
2021/07/22 11:51:01;;;;;;;0.17;0.17;;;;;;;;;;4826125;29;20058;-90
2021/07/22 11:53:28;;;;;;;0.20;0.20;;;;;;;;;;4810415;29;20106;-90
2021/07/22 11:55:55;;;;;;;0.35;0.30;;;;;;;;;;4810305;29;20427;-91
2021/07/22 11:58:21;;;;;;;0.20;0.20;;;;;;;;;;4795656;29;20125;-90
2021/07/22 12:00:47;;;;;;;0.22;0.22;;;;;;;;;;4795516;29;20418;-89
2021/07/22 12:03:13;;;;;;;0.32;0.32;;;;;;;;;;4810579;29;20457;-89
2021/07/22 12:05:39;;;;;;;0.20;0.20;;;;;;;;;;4795351;29;20049;-89
2021/07/22 12:08:15;;;;;;;0.20;0.20;;;;;;;;;;4810132;29;20057;-89
2021/07/22 12:10:41;;;;;;;0.30;0.30;;;;;;;;;;4825529;29;20086;-90
2021/07/22 12:13:11;;;;;;;0.20;0.20;;;;;;;;;;4810299;29;20049;-90
2021/07/22 12:15:37;;;;;;;0.32;0.32;;;;;;;;;;4810667;29;20565;-90
2021/07/22 12:18:04;;;;;;;0.20;0.20;;;;;;;;;;4825529;29;20487;-90
2021/07/22 12:20:30;;;;;;;0.20;0.20;;;;;;;;;;4825622;29;20098;-90
2021/07/22 12:22:56;;;;;;;0.20;0.20;;;;;;;;;;4825208;29;20042;-90
2021/07/22 12:25:24;;;;;;;0.20;0.20;;;;;;;;;;4825483;29;20117;-90
2021/07/22 12:27:53;;;;;;;0.20;0.20;;;;;;;;;;4810153;29;20049;-90
2021/07/22 12:30:19;;;;;;;0.20;0.20;;;;;;;;;;4825119;29;20055;-90
2021/07/22 12:32:58;;;;;;;0.25;0.25;;;;;;;;;;4841401;29;20073;-90
2021/07/22 12:35:28;;;;;;;0.20;0.20;;;;;;;;;;4810309;29;20106;-89
2021/07/22 12:37:55;;;;;;;0.17;0.17;;;;;;;;;;4841371;29;20098;-89
2021/07/22 12:40:36;;;;;;;0.30;0.30;;;;;;;;;;4810115;29;20045;-90
2021/07/22 12:43:04;;;;;;;0.22;0.22;;;;;;;;;;4810473;29;20049;-90
2021/07/22 12:45:31;;;;;;;0.20;0.20;;;;;;;;;;4825343;29;20560;-89
2021/07/22 12:47:57;;;;;;;0.30;0.30;;;;;;;;;;4811100;29;20062;-95
2021/07/22 12:50:33;;;;;;;0.20;0.20;;;;;;;;;;4810422;29;20054;-88
2021/07/22 12:53:05;;;;;;;0.28;0.28;;;;;;;;;;4810130;29;20042;-93
2021/07/22 12:55:38;;;;;;;0.28;0.28;;;;;;;;;;4811758;29;20049;-92
2021/07/22 12:58:05;;;;;;;0.20;0.20;;;;;;;;;;4826960;29;20077;-89
2021/07/22 13:00:37;;;;;;;0.20;0.20;;;;;;;;;;4842474;29;20099;-88
2021/07/22 13:03:03;;;;;;;;;;;;;;;;;;4810955;29;20483;-91
2021/07/22 13:05:29;;;;;;;0.20;0.20;;;;;;;;;;4825164;29;19928;-90
2021/07/22 13:07:55;;;;;;;0.28;0.28;;;;;;;;;;4829018;29;20086;-89
2021/07/22 13:10:22;;;;;;;0.40;0.30;;;;;;;;;;4814159;29;20487;-91
2021/07/22 13:12:48;;;;;;;0.10;0.10;;;;;;;;;;4813957;29;20407;-90
2021/07/22 13:15:15;;;;;;;0.20;0.20;;;;;;;;;;4828290;29;20050;-91
2021/07/22 13:17:41;;;;;;;0.20;0.20;;;;;;;;;;4813187;29;20053;-91
2021/07/22 13:20:08;;;;;;;0.20;0.20;;;;;;;;;;4813362;29;20042;-88
2021/07/22 13:22:34;;;;;;;0.10;0.10;;;;;;;;;;4828269;29;20046;-88
2021/07/22 13:25:00;;;;;;;0.20;0.20;;;;;;;;;;4844441;29;20464;-87
2021/07/22 13:27:27;;;;;;;0.20;0.20;;;;;;;;;;4828036;29;20038;-89
2021/07/22 13:29:53;;;;;;;0.20;0.20;;;;;;;;;;4812772;29;20349;-88
2021/07/22 13:32:18;;;;;;;0.20;0.20;;;;;;;;;;4827969;29;20053;-87
2021/07/22 13:34:45;;;;;;;0.20;0.20;;;;;;;;;;4827878;29;20037;-89
2021/07/22 13:37:11;;;;;;;0.65;0.65;;;;;;;;;;4827844;29;20556;-88
2021/07/22 13:39:37;;;;;;;0.20;0.20;;;;;;;;;;4812888;29;20042;-88
2021/07/22 13:42:06;;;;;;;0.20;0.20;;;;;;;;;;4827714;29;20048;-89
2021/07/22 13:44:34;;;;;;;0.17;0.17;;;;;;;;;;4812921;29;20491;-88
2021/07/22 13:47:00;;;;;;;0.20;0.20;;;;;;;;;;4827710;29;20053;-88
2021/07/22 13:49:26;;;;;;;0.20;0.20;;;;;;;;;;4827846;29;20402;-88
2021/07/22 13:51:53;;;;;;;0.20;0.20;;;;;;;;;;4826117;29;20515;-89
2021/07/22 13:54:19;;;;;;;0.20;0.20;;;;;;;;;;4827132;29;20045;-87
2021/07/22 13:56:45;;;;;;;0.17;0.17;;;;;;;;;;4827455;29;20182;-88
2021/07/22 13:59:11;;;;;;;0.20;0.20;;;;;;;;;;4827363;29;20526;-88
2021/07/22 14:01:37;;;;;;;0.20;0.20;;;;;;;;;;4812457;29;20059;-89
2021/07/22 14:04:05;;;;;;;0.20;0.20;;;;;;;;;;4812288;29;20042;-87
2021/07/22 14:06:32;;;;;;;0.20;0.20;;;;;;;;;;4827704;29;20121;-89
2021/07/22 14:08:58;;;;;;;0.20;0.20;;;;;;;;;;4843712;29;20049;-88
2021/07/22 14:11:23;;;;;;;0.20;0.20;;;;;;;;;;4827333;29;20042;-87
2021/07/22 14:13:49;;;;;;;0.20;0.20;;;;;;;;;;4827291;29;20069;-89
2021/07/22 14:16:16;;;;;;;0.20;0.20;;;;;;;;;;4812215;29;20064;-86
2021/07/22 14:18:42;;;;;;;0.20;0.20;;;;;;;;;;4826733;29;20096;-88
2021/07/22 14:21:08;;;;;;;0.20;0.20;;;;;;;;;;4827221;29;20094;-88
2021/07/22 14:23:34;;;;;;;0.10;0.10;;;;;;;;;;4812240;29;20054;-89
2021/07/22 14:26:00;;;;;;;0.20;0.20;;;;;;;;;;4812254;29;20085;-89
2021/07/22 14:28:26;;;;;;;0.10;0.10;;;;;;;;;;4843131;29;20132;-88
2021/07/22 14:30:52;;;;;;;0.20;0.20;;;;;;;;;;4811875;29;20479;-88
2021/07/22 14:33:18;;;;;;;0.38;0.38;;;;;;;;;;4826927;29;20050;-87
2021/07/22 14:35:44;;;;;;;0.10;0.10;;;;;;;;;;4811867;29;20049;-88
2021/07/22 14:38:10;;;;;;;0.20;0.20;;;;;;;;;;4826830;29;20064;-88
2021/07/22 14:40:36;;;;;;;0.20;0.20;;;;;;;;;;4826809;29;20478;-88
2021/07/22 14:43:02;;;;;;;0.20;0.20;;;;;;;;;;4826825;29;20034;-88